sensor_id;sensor_type;location;lat;lon;timestamp;pressure;altitude;pressure_sealevel;temperature
12126;BMP180;6126;57.908;16.490;2022-12-18T00:01:34;102338.31;;;-2.89
12126;BMP180;6126;57.908;16.490;2022-12-18T00:04:03;102329.75;;;-2.89
12126;BMP180;6126;57.908;16.490;2022-12-18T00:06:30;102311.91;;;-2.88
12126;BMP180;6126;57.908;16.490;2022-12-18T00:08:58;102323.00;;;-2.87
12126;BMP180;6126;57.908;16.490;2022-12-18T00:11:27;102332.38;;;-2.88
12126;BMP180;6126;57.908;16.490;2022-12-18T00:13:56;102327.28;;;-2.88
12126;BMP180;6126;57.908;16.490;2022-12-18T00:16:24;102323.00;;;-2.87
12126;BMP180;6126;57.908;16.490;2022-12-18T00:18:55;102323.00;;;-2.87
12126;BMP180;6126;57.908;16.490;2022-12-18T00:21:21;102334.94;;;-2.88
12126;BMP180;6126;57.908;16.490;2022-12-18T00:23:49;102333.25;;;-2.87
12126;BMP180;6126;57.908;16.490;2022-12-18T00:26:36;102332.38;;;-2.88
12126;BMP180;6126;57.908;16.490;2022-12-18T00:29:11;102333.25;;;-2.87
12126;BMP180;6126;57.908;16.490;2022-12-18T00:31:39;102330.72;;;-2.86
12126;BMP180;6126;57.908;16.490;2022-12-18T00:34:06;102332.41;;;-2.86
12126;BMP180;6126;57.908;16.490;2022-12-18T00:36:34;102333.28;;;-2.86
12126;BMP180;6126;57.908;16.490;2022-12-18T00:39:03;102330.72;;;-2.86
12126;BMP180;6126;57.908;16.490;2022-12-18T00:41:30;102321.41;;;-2.85
12126;BMP180;6126;57.908;16.490;2022-12-18T00:44:17;102335.03;;;-2.85
12126;BMP180;6126;57.908;16.490;2022-12-18T00:46:44;102319.69;;;-2.85
12126;BMP180;6126;57.908;16.490;2022-12-18T00:49:11;102327.31;;;-2.86
12126;BMP180;6126;57.908;16.490;2022-12-18T00:51:37;102321.41;;;-2.85
12126;BMP180;6126;57.908;16.490;2022-12-18T00:54:03;102322.16;;;-2.88
12126;BMP180;6126;57.908;16.490;2022-12-18T00:56:29;102331.56;;;-2.87
12126;BMP180;6126;57.908;16.490;2022-12-18T00:58:55;102329.00;;;-2.87
12126;BMP180;6126;57.908;16.490;2022-12-18T01:01:21;102322.94;;;-2.89
12126;BMP180;6126;57.908;16.490;2022-12-18T01:03:47;102314.41;;;-2.89
12126;BMP180;6126;57.908;16.490;2022-12-18T01:06:14;102313.53;;;-2.90
12126;BMP180;6126;57.908;16.490;2022-12-18T01:08:40;102316.94;;;-2.91
12126;BMP180;6126;57.908;16.490;2022-12-18T01:11:12;102321.16;;;-2.91
12126;BMP180;6126;57.908;16.490;2022-12-18T01:13:40;102325.41;;;-2.92
12126;BMP180;6126;57.908;16.490;2022-12-18T01:16:07;102341.69;;;-2.90
12126;BMP180;6126;57.908;16.490;2022-12-18T01:18:34;102335.75;;;-2.89
12126;BMP180;6126;57.908;16.490;2022-12-18T01:21:05;102341.84;;;-2.85
12126;BMP180;6126;57.908;16.490;2022-12-18T01:23:31;102337.72;;;-2.82
12126;BMP180;6126;57.908;16.490;2022-12-18T01:25:57;102331.81;;;-2.79
12126;BMP180;6126;57.908;16.490;2022-12-18T01:28:23;102330.19;;;-2.77
12126;BMP180;6126;57.908;16.490;2022-12-18T01:30:49;102326.88;;;-2.75
12126;BMP180;6126;57.908;16.490;2022-12-18T01:33:15;102327.78;;;-2.73
12126;BMP180;6126;57.908;16.490;2022-12-18T01:35:42;102317.66;;;-2.70
12126;BMP180;6126;57.908;16.490;2022-12-18T01:38:09;102317.72;;;-2.69
12126;BMP180;6126;57.908;16.490;2022-12-18T01:40:35;102303.28;;;-2.67
12126;BMP180;6126;57.908;16.490;2022-12-18T01:43:01;102311.00;;;-2.65
12126;BMP180;6126;57.908;16.490;2022-12-18T01:45:31;102305.13;;;-2.63
12126;BMP180;6126;57.908;16.490;2022-12-18T01:48:06;102309.47;;;-2.60
12126;BMP180;6126;57.908;16.490;2022-12-18T01:50:41;102306.22;;;-2.56
12126;BMP180;6126;57.908;16.490;2022-12-18T01:53:19;102298.56;;;-2.55
12126;BMP180;6126;57.908;16.490;2022-12-18T01:55:53;102293.56;;;-2.52
12126;BMP180;6126;57.908;16.490;2022-12-18T01:58:37;102298.78;;;-2.49
12126;BMP180;6126;57.908;16.490;2022-12-18T02:01:05;102292.91;;;-2.46
12126;BMP180;6126;57.908;16.490;2022-12-18T02:03:31;102286.13;;;-2.45
12126;BMP180;6126;57.908;16.490;2022-12-18T02:06:20;102296.47;;;-2.42
12126;BMP180;6126;57.908;16.490;2022-12-18T02:09:35;102301.69;;;-2.39
12126;BMP180;6126;57.908;16.490;2022-12-18T02:12:20;102288.16;;;-2.35
12126;BMP180;6126;57.908;16.490;2022-12-18T02:17:46;102282.44;;;-2.28
12126;BMP180;6126;57.908;16.490;2022-12-18T02:20:33;102296.19;;;-2.24
12126;BMP180;6126;57.908;16.490;2022-12-18T02:26:26;102288.84;;;-2.14
12126;BMP180;6126;57.908;16.490;2022-12-18T02:29:25;102286.44;;;-2.10
12126;BMP180;6126;57.908;16.490;2022-12-18T02:31:56;102285.75;;;-2.04
12126;BMP180;6126;57.908;16.490;2022-12-18T02:34:29;102277.34;;;-2.00
12126;BMP180;6126;57.908;16.490;2022-12-18T02:36:59;102277.47;;;-1.97
12126;BMP180;6126;57.908;16.490;2022-12-18T02:39:30;102271.59;;;-1.93
12126;BMP180;6126;57.908;16.490;2022-12-18T02:42:00;102274.31;;;-1.89
12126;BMP180;6126;57.908;16.490;2022-12-18T02:44:28;102269.19;;;-1.87
12126;BMP180;6126;57.908;16.490;2022-12-18T02:46:54;102274.41;;;-1.85
12126;BMP180;6126;57.908;16.490;2022-12-18T02:55:17;102258.50;;;-1.75
12126;BMP180;6126;57.908;16.490;2022-12-18T03:00:53;102251.88;;;-1.68
12126;BMP180;6126;57.908;16.490;2022-12-18T03:03:36;102256.22;;;-1.66
12126;BMP180;6126;57.908;16.490;2022-12-18T03:06:21;102246.06;;;-1.63
12126;BMP180;6126;57.908;16.490;2022-12-18T03:08:56;102242.72;;;-1.59
12126;BMP180;6126;57.908;16.490;2022-12-18T03:11:27;102247.94;;;-1.56
12126;BMP180;6126;57.908;16.490;2022-12-18T03:14:16;102244.66;;;-1.52
12126;BMP180;6126;57.908;16.490;2022-12-18T03:16:44;102244.75;;;-1.49
12126;BMP180;6126;57.908;16.490;2022-12-18T03:19:22;102254.28;;;-1.45
12126;BMP180;6126;57.908;16.490;2022-12-18T03:21:56;102255.16;;;-1.43
12126;BMP180;6126;57.908;16.490;2022-12-18T03:24:26;102252.59;;;-1.43
12126;BMP180;6126;57.908;16.490;2022-12-18T03:27:01;102240.69;;;-1.41
12126;BMP180;6126;57.908;16.490;2022-12-18T03:29:38;102240.75;;;-1.40
12126;BMP180;6126;57.908;16.490;2022-12-18T03:32:21;102240.84;;;-1.37
12126;BMP180;6126;57.908;16.490;2022-12-18T03:34:52;102246.91;;;-1.33
12126;BMP180;6126;57.908;16.490;2022-12-18T03:37:20;102252.97;;;-1.31
12126;BMP180;6126;57.908;16.490;2022-12-18T03:39:46;102252.19;;;-1.29
12126;BMP180;6126;57.908;16.490;2022-12-18T03:44:59;102250.63;;;-1.24
12126;BMP180;6126;57.908;16.490;2022-12-18T03:50:56;102244.81;;;-1.17
12126;BMP180;6126;57.908;16.490;2022-12-18T03:54:03;102255.16;;;-1.14
12126;BMP180;6126;57.908;16.490;2022-12-18T03:56:36;102248.34;;;-1.14
12126;BMP180;6126;57.908;16.490;2022-12-18T03:59:05;102252.63;;;-1.13
12126;BMP180;6126;57.908;16.490;2022-12-18T04:01:40;102256.97;;;-1.10
12126;BMP180;6126;57.908;16.490;2022-12-18T04:04:09;102255.28;;;-1.10
12126;BMP180;6126;57.908;16.490;2022-12-18T04:06:37;102242.44;;;-1.10
12126;BMP180;6126;57.908;16.490;2022-12-18T04:09:04;102237.31;;;-1.10
12126;BMP180;6126;57.908;16.490;2022-12-18T04:11:31;102250.22;;;-1.07
12126;BMP180;6126;57.908;16.490;2022-12-18T04:13:58;102233.09;;;-1.08
12126;BMP180;6126;57.908;16.490;2022-12-18T04:16:27;102236.53;;;-1.07
12126;BMP180;6126;57.908;16.490;2022-12-18T04:18:54;102246.00;;;-1.05
12126;BMP180;6126;57.908;16.490;2022-12-18T04:21:20;102234.88;;;-1.05
12126;BMP180;6126;57.908;16.490;2022-12-18T04:23:46;102246.88;;;-1.04
12126;BMP180;6126;57.908;16.490;2022-12-18T04:26:12;102241.72;;;-1.04
12126;BMP180;6126;57.908;16.490;2022-12-18T04:28:38;102241.72;;;-1.04
12126;BMP180;6126;57.908;16.490;2022-12-18T04:31:04;102231.53;;;-1.03
12126;BMP180;6126;57.908;16.490;2022-12-18T04:33:30;102231.53;;;-1.03
12126;BMP180;6126;57.908;16.490;2022-12-18T04:35:56;102237.53;;;-1.02
12126;BMP180;6126;57.908;16.490;2022-12-18T04:38:21;102237.50;;;-1.04
12126;BMP180;6126;57.908;16.490;2022-12-18T04:40:47;102230.63;;;-1.05
12126;BMP180;6126;57.908;16.490;2022-12-18T04:43:13;102226.34;;;-1.04
12126;BMP180;6126;57.908;16.490;2022-12-18T04:45:39;102233.19;;;-1.05
12126;BMP180;6126;57.908;16.490;2022-12-18T04:48:06;102231.47;;;-1.04
12126;BMP180;6126;57.908;16.490;2022-12-18T04:50:32;102221.22;;;-1.04
12126;BMP180;6126;57.908;16.490;2022-12-18T04:52:58;102225.47;;;-1.05
12126;BMP180;6126;57.908;16.490;2022-12-18T04:55:26;102227.13;;;-1.07
12126;BMP180;6126;57.908;16.490;2022-12-18T04:57:52;102223.69;;;-1.09
12126;BMP180;6126;57.908;16.490;2022-12-18T05:00:19;102215.06;;;-1.11
12126;BMP180;6126;57.908;16.490;2022-12-18T05:02:45;102223.63;;;-1.10
12126;BMP180;6126;57.908;16.490;2022-12-18T05:05:11;102228.69;;;-1.12
12126;BMP180;6126;57.908;16.490;2022-12-18T05:07:37;102210.75;;;-1.12
12126;BMP180;6126;57.908;16.490;2022-12-18T05:10:03;102205.63;;;-1.12
12126;BMP180;6126;57.908;16.490;2022-12-18T05:12:32;102207.38;;;-1.11
12126;BMP180;6126;57.908;16.490;2022-12-18T05:14:58;102203.09;;;-1.10
12126;BMP180;6126;57.908;16.490;2022-12-18T05:17:24;102211.66;;;-1.10
12126;BMP180;6126;57.908;16.490;2022-12-18T05:19:50;102216.78;;;-1.10
12126;BMP180;6126;57.908;16.490;2022-12-18T05:22:16;102219.44;;;-1.07
12126;BMP180;6126;57.908;16.490;2022-12-18T05:24:42;102204.88;;;-1.08
12126;BMP180;6126;57.908;16.490;2022-12-18T05:27:08;102213.50;;;-1.04
12126;BMP180;6126;57.908;16.490;2022-12-18T05:29:33;102199.00;;;-1.04
12126;BMP180;6126;57.908;16.490;2022-12-18T05:31:59;102199.91;;;-1.02
12126;BMP180;6126;57.908;16.490;2022-12-18T05:34:25;102211.03;;;-1.01
12126;BMP180;6126;57.908;16.490;2022-12-18T05:36:51;102205.09;;;-0.99
12126;BMP180;6126;57.908;16.490;2022-12-18T05:39:17;102203.44;;;-0.98
12126;BMP180;6126;57.908;16.490;2022-12-18T05:41:43;102196.59;;;-0.98
12126;BMP180;6126;57.908;16.490;2022-12-18T05:44:09;102195.72;;;-0.98
12126;BMP180;6126;57.908;16.490;2022-12-18T05:46:35;102194.03;;;-0.98
12126;BMP180;6126;57.908;16.490;2022-12-18T05:49:02;102196.59;;;-0.98
12126;BMP180;6126;57.908;16.490;2022-12-18T05:51:28;102194.06;;;-0.96
12126;BMP180;6126;57.908;16.490;2022-12-18T05:53:54;102182.13;;;-0.96
12126;BMP180;6126;57.908;16.490;2022-12-18T05:56:22;102200.97;;;-0.94
12126;BMP180;6126;57.908;16.490;2022-12-18T05:58:53;102212.13;;;-0.93
12126;BMP180;6126;57.908;16.490;2022-12-18T06:01:24;102208.66;;;-0.94
12126;BMP180;6126;57.908;16.490;2022-12-18T06:03:50;102210.41;;;-0.93
12126;BMP180;6126;57.908;16.490;2022-12-18T06:06:25;102194.22;;;-0.91
12126;BMP180;6126;57.908;16.490;2022-12-18T06:08:52;102185.63;;;-0.91
12126;BMP180;6126;57.908;16.490;2022-12-18T06:11:21;102183.06;;;-0.91
12126;BMP180;6126;57.908;16.490;2022-12-18T06:13:51;102183.06;;;-0.91
12126;BMP180;6126;57.908;16.490;2022-12-18T06:16:18;102188.31;;;-0.88
12126;BMP180;6126;57.908;16.490;2022-12-18T06:18:44;102195.16;;;-0.87
12126;BMP180;6126;57.908;16.490;2022-12-18T06:21:10;102193.53;;;-0.85
12126;BMP180;6126;57.908;16.490;2022-12-18T06:23:36;102203.00;;;-0.83
12126;BMP180;6126;57.908;16.490;2022-12-18T06:26:08;102198.72;;;-0.82
12126;BMP180;6126;57.908;16.490;2022-12-18T06:28:34;102186.81;;;-0.80
12126;BMP180;6126;57.908;16.490;2022-12-18T06:31:02;102189.38;;;-0.79
12126;BMP180;6126;57.908;16.490;2022-12-18T06:33:29;102189.38;;;-0.79
12126;BMP180;6126;57.908;16.490;2022-12-18T06:36:12;102183.47;;;-0.76
12126;BMP180;6126;57.908;16.490;2022-12-18T06:38:42;102185.22;;;-0.75
12126;BMP180;6126;57.908;16.490;2022-12-18T06:41:18;102200.69;;;-0.72
12126;BMP180;6126;57.908;16.490;2022-12-18T06:43:44;102205.81;;;-0.72
12126;BMP180;6126;57.908;16.490;2022-12-18T06:46:11;102204.13;;;-0.70
12126;BMP180;6126;57.908;16.490;2022-12-18T06:48:38;102230.78;;;-0.67
12126;BMP180;6126;57.908;16.490;2022-12-18T06:51:04;102214.59;;;-0.64
12126;BMP180;6126;57.908;16.490;2022-12-18T06:53:32;102218.03;;;-0.63
12126;BMP180;6126;57.908;16.490;2022-12-18T06:56:07;102220.69;;;-0.60
12126;BMP180;6126;57.908;16.490;2022-12-18T06:58:33;102223.34;;;-0.57
12126;BMP180;6126;57.908;16.490;2022-12-18T07:01:01;102230.28;;;-0.53
12126;BMP180;6126;57.908;16.490;2022-12-18T07:03:27;102226.97;;;-0.49
12126;BMP180;6126;57.908;16.490;2022-12-18T07:05:53;102215.03;;;-0.47
12126;BMP180;6126;57.908;16.490;2022-12-18T07:08:19;102215.09;;;-0.44
12126;BMP180;6126;57.908;16.490;2022-12-18T07:10:45;102215.16;;;-0.41
12126;BMP180;6126;57.908;16.490;2022-12-18T07:13:11;102225.50;;;-0.38
12126;BMP180;6126;57.908;16.490;2022-12-18T07:15:37;102223.84;;;-0.36
12126;BMP180;6126;57.908;16.490;2022-12-18T07:18:03;102223.94;;;-0.33
12126;BMP180;6126;57.908;16.490;2022-12-18T07:20:29;102216.25;;;-0.32
12126;BMP180;6126;57.908;16.490;2022-12-18T07:22:54;102205.16;;;-0.31
12126;BMP180;6126;57.908;16.490;2022-12-18T07:25:21;102205.22;;;-0.26
12126;BMP180;6126;57.908;16.490;2022-12-18T07:27:47;102200.09;;;-0.26
12126;BMP180;6126;57.908;16.490;2022-12-18T07:30:13;102199.28;;;-0.24
12126;BMP180;6126;57.908;16.490;2022-12-18T07:32:39;102212.19;;;-0.22
12126;BMP180;6126;57.908;16.490;2022-12-18T07:35:05;102217.41;;;-0.19
12126;BMP180;6126;57.908;16.490;2022-12-18T07:37:31;102208.91;;;-0.17
12126;BMP180;6126;57.908;16.490;2022-12-18T07:39:57;102209.81;;;-0.15
12126;BMP180;6126;57.908;16.490;2022-12-18T07:42:23;102196.97;;;-0.13
12126;BMP180;6126;57.908;16.490;2022-12-18T07:45:01;102205.59;;;-0.11
12126;BMP180;6126;57.908;16.490;2022-12-18T07:47:28;102210.78;;;-0.08
12126;BMP180;6126;57.908;16.490;2022-12-18T07:49:58;102211.75;;;-0.05
12126;BMP180;6126;57.908;16.490;2022-12-18T07:52:24;102199.78;;;-0.03
12126;BMP180;6126;57.908;16.490;2022-12-18T07:54:50;102198.97;;;-0.01
12126;BMP180;6126;57.908;16.490;2022-12-18T07:57:17;102188.75;;;0.02
12126;BMP180;6126;57.908;16.490;2022-12-18T07:59:43;102207.66;;;0.04
12126;BMP180;6126;57.908;16.490;2022-12-18T08:02:09;102188.88;;;0.07
12126;BMP180;6126;57.908;16.490;2022-12-18T08:04:35;102207.78;;;0.10
12126;BMP180;6126;57.908;16.490;2022-12-18T08:07:01;102211.31;;;0.14
12126;BMP180;6126;57.908;16.490;2022-12-18T08:09:27;102223.38;;;0.16
12126;BMP180;6126;57.908;16.490;2022-12-18T08:11:53;102224.34;;;0.21
12126;BMP180;6126;57.908;16.490;2022-12-18T08:14:18;102225.22;;;0.23
12126;BMP180;6126;57.908;16.490;2022-12-18T08:16:44;102230.44;;;0.26
12126;BMP180;6126;57.908;16.490;2022-12-18T08:19:10;102232.16;;;0.27
12126;BMP180;6126;57.908;16.490;2022-12-18T08:21:37;102227.94;;;0.29
12126;BMP180;6126;57.908;16.490;2022-12-18T08:24:03;102222.81;;;0.30
12126;BMP180;6126;57.908;16.490;2022-12-18T08:26:31;102228.00;;;0.33
12126;BMP180;6126;57.908;16.490;2022-12-18T08:28:59;102234.09;;;0.37
12126;BMP180;6126;57.908;16.490;2022-12-18T08:31:26;102234.16;;;0.40
12126;BMP180;6126;57.908;16.490;2022-12-18T08:33:53;102239.31;;;0.41
12126;BMP180;6126;57.908;16.490;2022-12-18T08:36:20;102233.38;;;0.42
12126;BMP180;6126;57.908;16.490;2022-12-18T08:38:47;102235.94;;;0.44
12126;BMP180;6126;57.908;16.490;2022-12-18T08:41:15;102228.28;;;0.47
12126;BMP180;6126;57.908;16.490;2022-12-18T08:43:42;102217.19;;;0.48
12126;BMP180;6126;57.908;16.490;2022-12-18T08:46:32;102230.97;;;0.50
12126;BMP180;6126;57.908;16.490;2022-12-18T08:48:59;102232.69;;;0.51
12126;BMP180;6126;57.908;16.490;2022-12-18T08:51:25;102224.97;;;0.51
12126;BMP180;6126;57.908;16.490;2022-12-18T08:53:51;102232.75;;;0.54
12126;BMP180;6126;57.908;16.490;2022-12-18T08:56:17;102237.06;;;0.55
12126;BMP180;6126;57.908;16.490;2022-12-18T08:58:43;102233.66;;;0.56
12126;BMP180;6126;57.908;16.490;2022-12-18T09:01:11;102231.97;;;0.58
12126;BMP180;6126;57.908;16.490;2022-12-18T09:03:38;102229.47;;;0.61
12126;BMP180;6126;57.908;16.490;2022-12-18T09:06:05;102231.19;;;0.61
12126;BMP180;6126;57.908;16.490;2022-12-18T09:08:31;102231.19;;;0.61
12126;BMP180;6126;57.908;16.490;2022-12-18T09:11:00;102233.81;;;0.63
12126;BMP180;6126;57.908;16.490;2022-12-18T09:13:26;102244.97;;;0.63
12126;BMP180;6126;57.908;16.490;2022-12-18T09:15:54;102247.53;;;0.63
12126;BMP180;6126;57.908;16.490;2022-12-18T09:18:23;102251.81;;;0.64
12126;BMP180;6126;57.908;16.490;2022-12-18T09:20:50;102255.31;;;0.66
12126;BMP180;6126;57.908;16.490;2022-12-18T09:23:18;102254.44;;;0.66
12126;BMP180;6126;57.908;16.490;2022-12-18T09:25:44;102256.16;;;0.67
12126;BMP180;6126;57.908;16.490;2022-12-18T09:28:14;102247.63;;;0.68
12126;BMP180;6126;57.908;16.490;2022-12-18T09:30:47;102247.63;;;0.69
12126;BMP180;6126;57.908;16.490;2022-12-18T09:33:15;102245.94;;;0.70
12126;BMP180;6126;57.908;16.490;2022-12-18T09:35:43;102261.41;;;0.71
12126;BMP180;6126;57.908;16.490;2022-12-18T09:38:16;102242.56;;;0.72
12126;BMP180;6126;57.908;16.490;2022-12-18T09:40:48;102246.03;;;0.73
12126;BMP180;6126;57.908;16.490;2022-12-18T09:43:27;102248.59;;;0.73
12126;BMP180;6126;57.908;16.490;2022-12-18T09:46:04;102257.19;;;0.75
12126;BMP180;6126;57.908;16.490;2022-12-18T09:48:36;102243.47;;;0.74
12126;BMP180;6126;57.908;16.490;2022-12-18T09:51:22;102246.06;;;0.76
12126;BMP180;6126;57.908;16.490;2022-12-18T09:54:02;102258.94;;;0.77
12126;BMP180;6126;57.908;16.490;2022-12-18T09:56:35;102253.81;;;0.77
12126;BMP180;6126;57.908;16.490;2022-12-18T09:59:04;102252.09;;;0.78
12126;BMP180;6126;57.908;16.490;2022-12-18T10:01:32;102251.28;;;0.79
12126;BMP180;6126;57.908;16.490;2022-12-18T10:03:59;102259.00;;;0.79
12126;BMP180;6126;57.908;16.490;2022-12-18T10:06:49;102251.34;;;0.82
12126;BMP180;6126;57.908;16.490;2022-12-18T10:09:46;102247.03;;;0.82
12126;BMP180;6126;57.908;16.490;2022-12-18T10:15:29;102229.94;;;0.86
12126;BMP180;6126;57.908;16.490;2022-12-18T10:20:53;102241.19;;;0.89
12126;BMP180;6126;57.908;16.490;2022-12-18T10:26:10;102233.53;;;0.92
12126;BMP180;6126;57.908;16.490;2022-12-18T10:28:40;102243.88;;;0.95
12126;BMP180;6126;57.908;16.490;2022-12-18T10:31:18;102245.59;;;0.96
12126;BMP180;6126;57.908;16.490;2022-12-18T10:33:45;102240.53;;;0.99
12126;BMP180;6126;57.908;16.490;2022-12-18T10:36:11;102232.81;;;1.00
12126;BMP180;6126;57.908;16.490;2022-12-18T10:38:38;102239.72;;;1.03
12126;BMP180;6126;57.908;16.490;2022-12-18T10:43:44;102232.09;;;1.07
12126;BMP180;6126;57.908;16.490;2022-12-18T10:48:54;102252.75;;;1.10
12126;BMP180;6126;57.908;16.490;2022-12-18T10:51:29;102253.63;;;1.11
12126;BMP180;6126;57.908;16.490;2022-12-18T10:54:14;102263.09;;;1.12
12126;BMP180;6126;57.908;16.490;2022-12-18T10:56:41;102263.97;;;1.12
12126;BMP180;6126;57.908;16.490;2022-12-18T10:59:12;102269.97;;;1.13
12126;BMP180;6126;57.908;16.490;2022-12-18T11:01:56;102251.09;;;1.14
12126;BMP180;6126;57.908;16.490;2022-12-18T11:04:26;102257.16;;;1.16
12126;BMP180;6126;57.908;16.490;2022-12-18T11:09:36;102242.59;;;1.18
12126;BMP180;6126;57.908;16.490;2022-12-18T11:12:17;102257.22;;;1.20
12126;BMP180;6126;57.908;16.490;2022-12-18T11:14:54;102262.41;;;1.22
12126;BMP180;6126;57.908;16.490;2022-12-18T11:17:35;102252.94;;;1.21
12126;BMP180;6126;57.908;16.490;2022-12-18T11:20:30;102250.38;;;1.22
12126;BMP180;6126;57.908;16.490;2022-12-18T11:23:03;102242.69;;;1.23
12126;BMP180;6126;57.908;16.490;2022-12-18T11:25:30;102253.00;;;1.23
12126;BMP180;6126;57.908;16.490;2022-12-18T11:28:08;102231.53;;;1.23
12126;BMP180;6126;57.908;16.490;2022-12-18T11:30:48;102215.28;;;1.25
12126;BMP180;6126;57.908;16.490;2022-12-18T11:33:21;102229.88;;;1.25
12126;BMP180;6126;57.908;16.490;2022-12-18T11:38:34;102227.28;;;1.26
12126;BMP180;6126;57.908;16.490;2022-12-18T11:44:03;102224.75;;;1.28
12126;BMP180;6126;57.908;16.490;2022-12-18T11:46:38;102221.38;;;1.30
12126;BMP180;6126;57.908;16.490;2022-12-18T11:49:18;102220.53;;;1.31
12126;BMP180;6126;57.908;16.490;2022-12-18T11:52:41;102231.69;;;1.32
12126;BMP180;6126;57.908;16.490;2022-12-18T11:54:42;102222.25;;;1.32
12126;BMP180;6126;57.908;16.490;2022-12-18T11:57:38;102234.28;;;1.33
12126;BMP180;6126;57.908;16.490;2022-12-18T12:03:24;102254.09;;;1.36
12126;BMP180;6126;57.908;16.490;2022-12-18T12:06:37;102270.44;;;1.38
12126;BMP180;6126;57.908;16.490;2022-12-18T12:15:06;102254.16;;;1.40
12126;BMP180;6126;57.908;16.490;2022-12-18T12:17:48;102267.94;;;1.42
12126;BMP180;6126;57.908;16.490;2022-12-18T12:23:26;102276.59;;;1.46
12126;BMP180;6126;57.908;16.490;2022-12-18T12:26:10;102282.63;;;1.46
12126;BMP180;6126;57.908;16.490;2022-12-18T12:40:35;102308.47;;;1.52
12126;BMP180;6126;57.908;16.490;2022-12-18T12:43:40;102302.47;;;1.53
12126;BMP180;6126;57.908;16.490;2022-12-18T12:46:10;102291.34;;;1.54
12126;BMP180;6126;57.908;16.490;2022-12-18T12:49:07;102310.28;;;1.56
12126;BMP180;6126;57.908;16.490;2022-12-18T12:51:39;102299.13;;;1.57
12126;BMP180;6126;57.908;16.490;2022-12-18T12:54:15;102306.00;;;1.58
12126;BMP180;6126;57.908;16.490;2022-12-18T13:03:27;102291.44;;;1.58
12126;BMP180;6126;57.908;16.490;2022-12-18T13:06:04;102282.84;;;1.61
12126;BMP180;6126;57.908;16.490;2022-12-18T13:08:59;102287.19;;;1.62
12126;BMP180;6126;57.908;16.490;2022-12-18T13:11:39;102286.34;;;1.63
12126;BMP180;6126;57.908;16.490;2022-12-18T13:14:37;102306.94;;;1.63
12126;BMP180;6126;57.908;16.490;2022-12-18T13:20:11;102325.03;;;1.66
12126;BMP180;6126;57.908;16.490;2022-12-18T13:22:48;102319.06;;;1.67
12126;BMP180;6126;57.908;16.490;2022-12-18T13:25:29;102319.88;;;1.66
12126;BMP180;6126;57.908;16.490;2022-12-18T13:28:06;102318.19;;;1.66
12126;BMP180;6126;57.908;16.490;2022-12-18T13:43:47;102319.94;;;1.69
12126;BMP180;6126;57.908;16.490;2022-12-18T13:49:04;102331.19;;;1.72
12126;BMP180;6126;57.908;16.490;2022-12-18T13:51:33;102326.03;;;1.74
12126;BMP180;6126;57.908;16.490;2022-12-18T13:56:56;102326.06;;;1.75
12126;BMP180;6126;57.908;16.490;2022-12-18T13:59:26;102314.03;;;1.76
12126;BMP180;6126;57.908;16.490;2022-12-18T14:02:05;102325.22;;;1.76
12126;BMP180;6126;57.908;16.490;2022-12-18T14:04:35;102311.50;;;1.77
12126;BMP180;6126;57.908;16.490;2022-12-18T14:09:36;102317.50;;;1.76
12126;BMP180;6126;57.908;16.490;2022-12-18T14:12:03;102327.84;;;1.78
12126;BMP180;6126;57.908;16.490;2022-12-18T14:14:50;102335.56;;;1.79
12126;BMP180;6126;57.908;16.490;2022-12-18T14:17:18;102341.63;;;1.80
12126;BMP180;6126;57.908;16.490;2022-12-18T14:19:50;102333.91;;;1.81
12126;BMP180;6126;57.908;16.490;2022-12-18T14:22:25;102351.13;;;1.83
12126;BMP180;6126;57.908;16.490;2022-12-18T14:25:29;102347.72;;;1.84
12126;BMP180;6126;57.908;16.490;2022-12-18T14:30:37;102352.03;;;1.85
12126;BMP180;6126;57.908;16.490;2022-12-18T14:35:56;102344.28;;;1.85
12126;BMP180;6126;57.908;16.490;2022-12-18T14:41:16;102336.56;;;1.87
12126;BMP180;6126;57.908;16.490;2022-12-18T14:43:46;102349.47;;;1.87
12126;BMP180;6126;57.908;16.490;2022-12-18T14:46:44;102348.63;;;1.88
12126;BMP180;6126;57.908;16.490;2022-12-18T14:49:26;102344.34;;;1.88
12126;BMP180;6126;57.908;16.490;2022-12-18T14:52:02;102355.56;;;1.90
12126;BMP180;6126;57.908;16.490;2022-12-18T14:54:30;102345.25;;;1.90
12126;BMP180;6126;57.908;16.490;2022-12-18T14:57:05;102348.69;;;1.91
12126;BMP180;6126;57.908;16.490;2022-12-18T14:59:32;102331.50;;;1.91
12126;BMP180;6126;57.908;16.490;2022-12-18T15:04:42;102344.41;;;1.91
12126;BMP180;6126;57.908;16.490;2022-12-18T15:07:21;102337.53;;;1.92
12126;BMP180;6126;57.908;16.490;2022-12-18T15:10:16;102348.72;;;1.92
12126;BMP180;6126;57.908;16.490;2022-12-18T15:21:09;102329.81;;;1.93
12126;BMP180;6126;57.908;16.490;2022-12-18T15:23:36;102357.31;;;1.93
12126;BMP180;6126;57.908;16.490;2022-12-18T15:26:09;102341.00;;;1.92
12126;BMP180;6126;57.908;16.490;2022-12-18T15:28:55;102353.00;;;1.92
12126;BMP180;6126;57.908;16.490;2022-12-18T15:31:34;102341.00;;;1.92
12126;BMP180;6126;57.908;16.490;2022-12-18T15:34:19;102349.59;;;1.93
12126;BMP180;6126;57.908;16.490;2022-12-18T15:36:46;102356.47;;;1.92
12126;BMP180;6126;57.908;16.490;2022-12-18T15:39:14;102354.75;;;1.93
12126;BMP180;6126;57.908;16.490;2022-12-18T15:41:40;102358.16;;;1.92
12126;BMP180;6126;57.908;16.490;2022-12-18T15:44:26;102354.72;;;1.91
12126;BMP180;6126;57.908;16.490;2022-12-18T15:46:52;102350.41;;;1.90
12126;BMP180;6126;57.908;16.490;2022-12-18T15:49:18;102350.41;;;1.90
12126;BMP180;6126;57.908;16.490;2022-12-18T15:51:48;102343.50;;;1.89
12126;BMP180;6126;57.908;16.490;2022-12-18T15:54:15;102345.19;;;1.87
12126;BMP180;6126;57.908;16.490;2022-12-18T15:57:03;102343.47;;;1.88
12126;BMP180;6126;57.908;16.490;2022-12-18T15:59:49;102336.59;;;1.88
12126;BMP180;6126;57.908;16.490;2022-12-18T16:02:20;102340.91;;;1.89
12126;BMP180;6126;57.908;16.490;2022-12-18T16:04:46;102344.34;;;1.88
12126;BMP180;6126;57.908;16.490;2022-12-18T16:07:12;102353.81;;;1.89
12126;BMP180;6126;57.908;16.490;2022-12-18T16:09:38;102358.97;;;1.89
12126;BMP180;6126;57.908;16.490;2022-12-18T16:12:08;102376.19;;;1.90
12126;BMP180;6126;57.908;16.490;2022-12-18T16:14:37;102381.38;;;1.93
12126;BMP180;6126;57.908;16.490;2022-12-18T16:17:09;102367.66;;;1.94
12126;BMP180;6126;57.908;16.490;2022-12-18T16:19:35;102380.56;;;1.96
12126;BMP180;6126;57.908;16.490;2022-12-18T16:22:01;102370.25;;;1.97
12126;BMP180;6126;57.908;16.490;2022-12-18T16:24:30;102372.03;;;1.98